Portada
METAR-TAF:

METAR-TAF

Aeropuertos :

Aurillac, Francia

latitud: 44-53N, longitud: 002-25E, altitud: 639 m

Observación

El informe se hizo hace 26 minutos, a las 05:00 UTC
Viento 6 kt del este
Temperatura 10°C
Humedad 93%
Presión 1014 hPa
Visibilidad 10 km o más
sin nubes por debajo de 1500 m y sin presencia de cumulonimbus.

METAR: LFLW 210500Z AUTO 10006KT CAVOK 10/09 Q1014

Hora: 07:26 (05:26 UTC)

Pronóstico

El informe se hizo hace 15 horas y 26 minutos, a las 14:00 UTC
Pronóstico válido del 20 a las 15 UTC al 20 a las 24 UTC
Viento 5 kt del norte-noreste
Visibilidad 10 km o más
Escasas nubes a una altura de 4000 ft, Cumulonimbus.
Probabilidad 40% :
Temporalmente
del 20 a las 15 UTC al 20 a las 18 UTC
tormenta, lluvia

TAF: LFLW 201400Z 2015/2024 02005KT 9999 FEW040CB PROB40 TEMPO 2015/2018 TSRA

Observaciones y pronósticos meteorológicos de más de 4000 aeropuertos (mensajes METAR y TAF).

Los puntos amarillos y rojos representan las estaciones disponibles.

Ponga el ratón en el punto deseado para ver el nombre de la estación.

Haga clic para ver las observaciones y los pronósticos meteorológicos.

Para cambiar el mapa : haga clic en los botones verdes con una cruz de color negro para hacer un zoom, en el botón verde con un guión para alejar o en las flechas verdes para mapas adyacentes.


METAR-TAF: